createdAt,value
2018-04-07T03:32:34.922Z,92.90
2018-04-07T03:35:08.591Z,92.90
2018-04-07T03:37:43.232Z,92.70
2018-04-07T03:40:17.111Z,92.50
2018-04-07T03:42:50.980Z,92.30
2018-04-07T03:45:24.580Z,92.00
2018-04-07T03:47:59.156Z,91.90
2018-04-07T03:50:32.916Z,91.90
2018-04-07T03:53:06.684Z,91.80
2018-04-07T03:55:40.798Z,91.80
2018-04-07T03:58:34.572Z,91.80
2018-04-07T04:01:08.347Z,91.90
2018-04-07T04:03:42.328Z,91.90
2018-04-07T04:06:15.995Z,91.90
2018-04-07T04:08:50.608Z,92.10
2018-04-07T04:11:24.338Z,92.10
2018-04-07T04:13:58.195Z,92.30
2018-04-07T04:16:31.924Z,92.50
2018-04-07T04:19:06.456Z,92.80
2018-04-07T04:21:40.157Z,92.80
2018-04-07T04:24:14.041Z,92.90
2018-04-07T04:26:47.896Z,92.90
2018-04-07T04:29:21.708Z,93.20
2018-04-07T04:31:56.402Z,93.80
2018-04-07T04:34:30.245Z,93.80
2018-04-07T04:37:04.036Z,93.90
2018-04-07T04:39:37.741Z,94.00
2018-04-07T04:42:11.485Z,94.10
2018-04-07T04:44:45.228Z,94.20
2018-04-07T04:47:19.029Z,94.30
2018-04-07T04:49:53.667Z,94.20
2018-04-07T04:52:27.542Z,94.10
2018-04-07T04:55:01.635Z,94.00
2018-04-07T04:57:35.648Z,93.70
2018-04-07T05:00:10.954Z,93.00
2018-04-07T05:02:44.751Z,93.00
2018-04-07T05:05:18.584Z,92.90
2018-04-07T05:07:52.399Z,93.00
2018-04-07T05:10:26.244Z,92.80
2018-04-07T05:13:00.060Z,92.90
2018-04-07T05:15:33.771Z,92.90
2018-04-07T05:18:07.483Z,93.00
2018-04-07T05:20:41.403Z,93.00
2018-04-07T05:23:15.135Z,92.70
2018-04-07T05:25:48.880Z,92.70
2018-04-07T05:28:22.629Z,92.80
2018-04-07T05:30:56.388Z,92.70
2018-04-07T05:33:30.159Z,92.60
2018-04-07T05:36:04.440Z,92.40
2018-04-07T05:38:38.110Z,92.40
2018-04-07T05:41:11.973Z,92.50
2018-04-07T05:43:46.528Z,92.40
2018-04-07T05:46:20.302Z,92.40
2018-04-07T05:48:54.880Z,92.40
2018-04-07T05:51:29.375Z,92.30
2018-04-07T05:54:03.080Z,92.20
2018-04-07T05:56:37.176Z,92.40
2018-04-07T05:59:11.860Z,92.30
2018-04-07T06:01:45.459Z,92.30
2018-04-07T06:04:19.443Z,92.20
2018-04-07T06:06:53.132Z,92.20
2018-04-07T06:09:27.696Z,92.40
2018-04-07T06:12:02.262Z,92.50
2018-04-07T06:14:37.025Z,92.40
2018-04-07T06:17:10.836Z,92.40
2018-04-07T06:19:44.964Z,92.40
2018-04-07T06:22:18.617Z,92.20
2018-04-07T06:24:52.528Z,92.10
2018-04-07T06:27:26.287Z,91.90
2018-04-07T06:30:00.156Z,91.90
2018-04-07T06:32:33.997Z,91.50
2018-04-07T06:35:07.812Z,91.80
2018-04-07T06:37:41.616Z,91.60
2018-04-07T06:40:16.160Z,91.20
2018-04-07T06:42:50.003Z,91.40
2018-04-07T06:45:24.860Z,91.20
2018-04-07T06:47:58.532Z,91.20
2018-04-07T06:50:33.187Z,90.80
2018-04-07T06:53:06.907Z,90.70
2018-04-07T06:55:40.791Z,90.50
2018-04-07T06:58:14.611Z,90.40
2018-04-07T07:00:49.262Z,89.70
2018-04-07T07:03:22.963Z,89.70
2018-04-07T07:05:57.882Z,89.30
2018-04-07T07:08:31.576Z,89.30
2018-04-07T07:11:05.337Z,89.40
2018-04-07T07:13:39.989Z,89.60
2018-04-07T07:16:14.564Z,86.60
2018-04-07T07:18:49.034Z,86.30
2018-04-07T07:21:22.972Z,86.40
2018-04-07T07:23:58.300Z,85.60
2018-04-07T07:26:32.044Z,85.50
2018-04-07T07:29:06.700Z,84.40
2018-04-07T07:31:40.624Z,84.30
2018-04-07T07:34:14.477Z,84.50
2018-04-07T07:36:48.304Z,84.20
2018-04-07T07:39:22.876Z,82.10
2018-04-07T07:41:57.082Z,82.10
2018-04-07T07:44:31.629Z,80.80
2018-04-07T07:47:05.318Z,80.80
2018-04-07T07:49:39.152Z,80.80
2018-04-07T07:52:13.671Z,79.30
2018-04-07T07:54:47.354Z,79.30
2018-04-07T07:57:21.432Z,79.00
2018-04-07T07:59:55.211Z,77.30
2018-04-07T08:02:29.026Z,76.60
2018-04-07T08:05:02.781Z,77.60
2018-04-07T08:07:36.685Z,75.90
2018-04-07T08:10:10.473Z,75.10
2018-04-07T08:12:44.350Z,74.40
2018-04-07T08:15:18.022Z,75.10
2018-04-07T08:17:52.731Z,74.70
2018-04-07T08:20:27.484Z,74.00
2018-04-07T08:23:01.419Z,72.90
2018-04-07T08:25:36.003Z,67.80
2018-04-07T08:28:09.834Z,67.70
2018-04-07T08:30:44.418Z,67.00
2018-04-07T08:33:18.103Z,66.60
2018-04-07T08:35:53.520Z,62.30
2018-04-07T08:38:27.402Z,62.30
2018-04-07T08:41:01.288Z,54.50
2018-04-07T08:43:35.046Z,49.50
2018-04-07T08:46:08.914Z,45.80
2018-04-07T08:48:42.824Z,46.10
2018-04-07T08:51:17.692Z,43.60
2018-04-07T08:53:51.509Z,43.50
2018-04-07T08:56:25.284Z,42.60
2018-04-07T08:58:59.875Z,39.50
2018-04-07T09:01:34.416Z,38.70
2018-04-07T09:04:08.006Z,38.60
2018-04-07T09:06:43.369Z,39.40
2018-04-07T09:09:17.947Z,39.50
2018-04-07T09:11:51.674Z,39.50
2018-04-07T09:14:25.502Z,39.30
2018-04-07T09:16:59.229Z,36.90
2018-04-07T09:19:33.105Z,36.80
2018-04-07T09:22:06.963Z,36.30
2018-04-07T09:24:40.728Z,36.30
2018-04-07T09:27:15.686Z,35.70
2018-04-07T09:29:49.542Z,35.60
2018-04-07T09:32:23.444Z,35.40
2018-04-07T09:34:57.869Z,35.20
2018-04-07T09:37:31.689Z,35.10
2018-04-07T09:40:05.528Z,35.80
2018-04-07T09:42:39.458Z,35.40
2018-04-07T09:45:14.047Z,36.60
2018-04-07T09:47:47.857Z,36.00
2018-04-07T09:50:21.656Z,35.60
2018-04-07T09:52:56.267Z,34.90
2018-04-07T09:55:30.788Z,34.50
2018-04-07T09:58:04.533Z,34.50
2018-04-07T10:00:38.463Z,34.70
2018-04-07T10:03:12.948Z,34.90
2018-04-07T10:05:46.693Z,34.90
2018-04-07T10:08:21.165Z,34.50
2018-04-07T10:10:54.864Z,34.40
2018-04-07T10:13:28.822Z,33.30
2018-04-07T10:16:02.655Z,32.60
2018-04-07T10:18:36.421Z,33.40
2018-04-07T10:21:10.244Z,32.50
2018-04-07T10:23:44.789Z,32.40
2018-04-07T10:26:18.585Z,32.40
2018-04-07T10:28:52.305Z,32.80
2018-04-07T10:31:26.148Z,32.00
2018-04-07T10:33:59.952Z,31.60
2018-04-07T10:36:33.856Z,31.50
2018-04-07T10:39:07.556Z,30.90
2018-04-07T10:41:41.496Z,30.50
2018-04-07T10:44:15.277Z,30.70
2018-04-07T10:46:49.060Z,31.60
2018-04-07T10:49:22.767Z,31.50
2018-04-07T10:51:57.892Z,30.50
2018-04-07T10:54:31.701Z,30.40
2018-04-07T10:57:05.977Z,30.40
2018-04-07T10:59:39.764Z,31.20
2018-04-07T11:02:14.361Z,29.90
2018-04-07T11:04:48.175Z,29.80
2018-04-07T11:07:21.999Z,29.40
2018-04-07T11:09:56.584Z,28.80
2018-04-07T11:12:31.219Z,28.50
2018-04-07T11:15:04.941Z,28.50
2018-04-07T11:17:39.833Z,28.60
2018-04-07T11:20:13.689Z,28.60
2018-04-07T11:22:47.514Z,28.80
2018-04-07T11:25:22.107Z,29.50
2018-04-07T11:27:56.271Z,29.50
2018-04-07T11:30:29.989Z,28.80
2018-04-07T11:33:03.847Z,28.50
2018-04-07T11:35:38.631Z,28.70
2018-04-07T11:38:12.569Z,28.50
2018-04-07T11:40:47.088Z,29.00
2018-04-07T11:43:20.880Z,29.30
2018-04-07T11:45:54.601Z,29.80
2018-04-07T11:48:28.403Z,29.80
2018-04-07T11:51:02.928Z,32.00
2018-04-07T11:53:36.728Z,31.70
2018-04-07T11:56:11.890Z,33.00
2018-04-07T11:58:45.631Z,32.40
2018-04-07T12:01:19.968Z,33.40
2018-04-07T12:03:53.870Z,32.90
2018-04-07T12:06:27.751Z,32.80
2018-04-07T12:09:02.292Z,33.20
2018-04-07T12:11:36.227Z,33.20
2018-04-07T12:14:09.932Z,33.50
2018-04-07T12:16:43.831Z,33.90
2018-04-07T12:19:18.693Z,33.80
2018-04-07T12:21:53.285Z,33.40
2018-04-07T12:24:27.048Z,33.30
2018-04-07T12:27:01.120Z,32.60
2018-04-07T12:29:35.519Z,33.20
2018-04-07T12:32:10.198Z,33.00
2018-04-07T12:34:44.676Z,32.90
2018-04-07T12:37:18.578Z,32.90
2018-04-07T12:39:52.353Z,33.90
2018-04-07T12:42:26.251Z,33.70
2018-04-07T12:45:00.100Z,33.50
2018-04-07T12:47:34.016Z,34.00
2018-04-07T12:50:08.528Z,33.80
2018-04-07T12:52:42.285Z,33.70
2018-04-07T12:55:16.863Z,32.40
2018-04-07T12:57:50.628Z,32.40
2018-04-07T13:00:24.454Z,32.70
2018-04-07T13:02:59.610Z,34.20
2018-04-07T13:05:33.852Z,34.20
2018-04-07T13:08:07.696Z,34.50
2018-04-07T13:10:42.282Z,34.30
2018-04-07T13:13:16.009Z,34.00
2018-04-07T13:15:49.789Z,33.60
2018-04-07T13:18:23.596Z,33.30
2018-04-07T13:20:57.391Z,33.50
2018-04-07T13:23:31.146Z,34.10
2018-04-07T13:26:05.096Z,33.60
2018-04-07T13:28:38.965Z,34.10
2018-04-07T13:31:12.686Z,33.90
2018-04-07T13:33:46.840Z,34.30
2018-04-07T13:36:20.666Z,35.10
2018-04-07T13:38:54.580Z,34.80
2018-04-07T13:41:28.348Z,34.40
2018-04-07T13:44:02.149Z,33.90
2018-04-07T13:46:35.922Z,33.90
2018-04-07T13:49:09.798Z,34.10
2018-04-07T13:51:44.307Z,33.50
2018-04-07T13:54:18.244Z,33.40
2018-04-07T13:56:51.926Z,34.00
2018-04-07T13:59:25.772Z,33.30
2018-04-07T14:01:59.936Z,33.60
2018-04-07T14:04:34.445Z,32.60
2018-04-07T14:07:08.579Z,32.50
2018-04-07T14:09:42.399Z,33.10
2018-04-07T14:12:17.317Z,32.70
2018-04-07T14:14:50.909Z,32.70
2018-04-07T14:17:24.978Z,32.40
2018-04-07T14:19:58.688Z,32.30
2018-04-07T14:22:32.435Z,32.70
2018-04-07T14:25:06.268Z,32.30
2018-04-07T14:27:40.079Z,32.10
2018-04-07T14:30:13.922Z,32.10
2018-04-07T14:32:48.264Z,31.80
2018-04-07T14:35:22.113Z,32.20
2018-04-07T14:37:55.976Z,31.60
2018-04-07T14:40:30.590Z,31.60
2018-04-07T14:43:04.441Z,31.50
2018-04-07T14:45:38.269Z,31.00
2018-04-07T14:48:12.075Z,30.90
2018-04-07T14:50:45.932Z,30.80
2018-04-07T14:53:20.568Z,30.70
2018-04-07T14:55:54.262Z,30.70
2018-04-07T14:58:28.854Z,29.90
2018-04-07T15:01:03.448Z,29.90
2018-04-07T15:03:37.752Z,30.00
2018-04-07T15:06:11.447Z,29.70
2018-04-07T15:08:46.125Z,29.70
2018-04-07T15:11:20.025Z,29.70
2018-04-07T15:13:53.963Z,29.20
2018-04-07T15:16:27.996Z,28.90
2018-04-07T15:19:01.837Z,29.30
2018-04-07T15:21:36.383Z,29.50
2018-04-07T15:24:11.037Z,28.90
2018-04-07T15:26:45.644Z,28.90
2018-04-07T15:29:19.528Z,28.80
2018-04-07T15:31:53.476Z,29.00
2018-04-07T15:34:27.384Z,29.50
2018-04-07T15:37:01.100Z,29.70
2018-04-07T15:39:35.709Z,29.90
2018-04-07T15:42:09.601Z,29.90
2018-04-07T15:44:43.404Z,29.80
2018-04-07T15:47:17.255Z,30.00
2018-04-07T15:49:51.056Z,30.40
2018-04-07T15:52:24.912Z,31.20
2018-04-07T15:54:59.480Z,30.10
2018-04-07T15:57:34.043Z,30.40
2018-04-07T16:00:07.829Z,30.40
2018-04-07T16:02:42.437Z,30.80
2018-04-07T16:05:16.221Z,30.80
2018-04-07T16:07:51.071Z,32.10
2018-04-07T16:10:24.784Z,32.10
2018-04-07T16:12:59.312Z,31.20
2018-04-07T16:15:33.123Z,31.10
2018-04-07T16:18:07.005Z,31.70
2018-04-07T16:20:41.618Z,31.90
2018-04-07T16:23:15.661Z,31.90
2018-04-07T16:25:50.283Z,32.20
2018-04-07T16:28:24.132Z,32.10
2018-04-07T16:30:58.676Z,32.80
2018-04-07T16:33:32.460Z,32.80
2018-04-07T16:36:07.017Z,33.50
2018-04-07T16:38:41.544Z,33.60
2018-04-07T16:41:15.271Z,33.60
2018-04-07T16:43:49.060Z,33.70
2018-04-07T16:46:23.676Z,33.30
2018-04-07T16:48:58.321Z,30.80
2018-04-07T16:51:32.028Z,30.80
2018-04-07T16:54:05.731Z,29.60
2018-04-07T16:56:39.575Z,29.10
2018-04-07T16:59:13.389Z,29.10
2018-04-07T17:01:47.217Z,29.10
2018-04-07T17:04:21.893Z,29.10
2018-04-07T17:06:56.482Z,28.90
2018-04-07T17:09:30.257Z,28.90
2018-04-07T17:12:04.104Z,28.70
2018-04-07T17:14:39.469Z,28.90
2018-04-07T17:17:13.274Z,28.80
2018-04-07T17:19:47.042Z,29.20
2018-04-07T17:22:21.473Z,29.60
2018-04-07T17:24:55.362Z,30.00
2018-04-07T17:27:29.924Z,30.10
2018-04-07T17:30:04.544Z,29.90
2018-04-07T17:32:38.269Z,30.20
2018-04-07T17:35:12.915Z,31.00
2018-04-07T17:37:46.684Z,30.90
2018-04-07T17:40:21.346Z,31.40
2018-04-07T17:42:55.108Z,31.50
2018-04-07T17:45:29.738Z,31.90
2018-04-07T17:48:03.557Z,31.90
2018-04-07T17:50:37.500Z,32.10
2018-04-07T17:53:11.305Z,32.50
2018-04-07T17:55:45.788Z,32.90
2018-04-07T17:58:19.516Z,32.90
2018-04-07T18:00:53.376Z,33.40
2018-04-07T18:03:27.988Z,33.80
2018-04-07T18:06:01.845Z,33.80
2018-04-07T18:08:36.543Z,34.30
2018-04-07T18:11:11.197Z,34.40
2018-04-07T18:13:45.096Z,34.50
2018-04-07T18:16:19.973Z,34.80
2018-04-07T18:18:54.484Z,34.80
2018-04-07T18:21:28.274Z,35.00
2018-04-07T18:24:02.769Z,35.00
2018-04-07T18:26:36.569Z,35.10
2018-04-07T18:29:11.186Z,35.80
2018-04-07T18:31:45.040Z,35.80
2018-04-07T18:34:18.945Z,35.20
2018-04-07T18:36:52.810Z,35.50
2018-04-07T18:39:26.539Z,35.70
2018-04-07T18:42:01.156Z,35.50
2018-04-07T18:44:34.916Z,35.50
2018-04-07T18:47:08.688Z,35.90
2018-04-07T18:49:43.169Z,36.20
2018-04-07T18:52:17.408Z,36.20
2018-04-07T18:54:51.107Z,35.90
2018-04-07T18:57:25.607Z,36.60
2018-04-07T18:59:59.754Z,36.60
2018-04-07T19:02:33.720Z,36.00
2018-04-07T19:05:07.516Z,35.70
2018-04-07T19:07:41.348Z,36.30
2018-04-07T19:10:15.898Z,36.30
2018-04-07T19:12:49.618Z,36.30
2018-04-07T19:15:23.444Z,36.80
2018-04-07T19:17:58.007Z,36.80
2018-04-07T19:20:31.779Z,36.80
2018-04-07T19:23:05.556Z,37.00
2018-04-07T19:25:39.435Z,36.50
2018-04-07T19:28:14.079Z,36.30
2018-04-07T19:30:48.601Z,36.30
2018-04-07T19:33:22.322Z,36.30
2018-04-07T19:35:56.233Z,36.40
2018-04-07T19:38:30.716Z,36.80
2018-04-07T19:41:04.704Z,36.80
2018-04-07T19:43:39.242Z,37.40
2018-04-07T19:46:13.007Z,37.40
2018-04-07T19:48:47.578Z,37.90
2018-04-07T19:51:21.407Z,37.90
2018-04-07T19:53:55.231Z,38.20
2018-04-07T19:56:29.335Z,38.30
2018-04-07T19:59:03.827Z,39.30
2018-04-07T20:01:38.382Z,39.10
2018-04-07T20:04:12.057Z,39.10
2018-04-07T20:06:47.429Z,39.70
2018-04-07T20:09:21.253Z,39.70
2018-04-07T20:11:56.225Z,39.60
2018-04-07T20:14:29.861Z,39.50
2018-04-07T20:17:04.087Z,39.70
2018-04-07T20:19:37.809Z,40.40
2018-04-07T20:22:11.941Z,40.00
2018-04-07T20:24:46.647Z,39.90
2018-04-07T20:27:20.470Z,39.90
2018-04-07T20:29:54.345Z,40.00
2018-04-07T20:32:28.080Z,40.10
2018-04-07T20:35:02.739Z,40.60
2018-04-07T20:37:37.487Z,41.00
2018-04-07T20:40:11.435Z,40.90
2018-04-07T20:42:46.020Z,41.30
2018-04-07T20:45:19.970Z,41.30
2018-04-07T20:47:53.801Z,41.70
2018-04-07T20:50:27.547Z,42.00
2018-04-07T20:53:01.385Z,42.20
2018-04-07T20:55:35.965Z,42.70
2018-04-07T20:58:10.217Z,42.60
